Time;durP1;ratioP1;P1;durP2;ratioP2;P2;SDS_P1;SDS_P2;PMS_P1;PMS_P2;Temp;Humidity;BMP_temperature;BMP_pressure;BME280_temperature;BME280_humidity;BME280_pressure;Samples;Min_cycle;Max_cycle;Signal;HPM_P1;HPM_P2
2023/04/29 00:01:06;;;;;;;15.32;7.70;;;;;;;22.58;51.32;98289.06;4774553;29;20051;-64
2023/04/29 00:03:35;;;;;;;22.55;9.25;;;;;;;22.57;51.08;98295.59;4777107;29;20065;-70
2023/04/29 00:06:05;;;;;;;18.67;8.32;;;;;;;22.55;51.08;98292.34;4771895;29;20052;-69
2023/04/29 00:08:35;;;;;;;17.02;8.13;;;;;;;22.53;51.54;98292.63;4781279;29;20067;-68
2023/04/29 00:11:05;;;;;;;21.55;7.82;;;;;;;22.55;51.97;98286.94;4770819;29;20061;-65
2023/04/29 00:13:34;;;;;;;16.33;8.27;;;;;;;22.53;51.71;98287.22;4771856;29;20061;-67
2023/04/29 00:16:04;;;;;;;15.80;8.15;;;;;;;22.51;51.71;98291.28;4766947;29;20077;-65
2023/04/29 00:18:34;;;;;;;17.90;8.57;;;;;;;22.49;51.78;98293.44;4768412;29;20059;-66
2023/04/29 00:21:06;;;;;;;15.40;8.27;;;;;;;22.47;51.69;98291.06;4769356;29;20051;-65
2023/04/29 00:23:35;;;;;;;17.10;7.93;;;;;;;22.47;51.65;98288.34;4771760;29;20054;-66
2023/04/29 00:26:05;;;;;;;22.95;8.90;;;;;;;22.46;51.42;98280.53;4768319;29;20524;-65
2023/04/29 00:28:34;;;;;;;14.57;8.98;;;;;;;22.46;51.65;98285.94;4765002;29;20059;-65
2023/04/29 00:31:03;;;;;;;15.90;8.40;;;;;;;22.45;51.91;98284.31;4762145;29;20047;-65
2023/04/29 00:33:32;;;;;;;19.52;9.52;;;;;;;22.45;51.77;98287.00;4764768;29;20603;-67
2023/04/29 00:36:02;;;;;;;23.90;10.45;;;;;;;22.45;51.80;98293.22;4764621;29;20494;-65
2023/04/29 00:38:31;;;;;;;22.92;9.68;;;;;;;22.46;52.17;98291.31;4779784;29;20091;-63
2023/04/29 00:41:01;;;;;;;16.35;9.77;;;;;;;22.44;51.69;98288.88;4747677;30;20056;-66
2023/04/29 00:43:31;;;;;;;21.77;10.32;;;;;;;22.44;51.84;98299.69;4766960;29;20124;-66
2023/04/29 00:46:00;;;;;;;22.30;10.60;;;;;;;22.45;51.27;98300.50;4770689;29;20052;-66
2023/04/29 00:48:30;;;;;;;26.52;12.18;;;;;;;22.48;51.51;98299.97;4761053;29;20063;-63
2023/04/29 00:51:00;;;;;;;17.83;11.02;;;;;;;22.49;51.10;98298.84;4761739;29;20137;-66
2023/04/29 00:53:30;;;;;;;21.38;10.35;;;;;;;22.53;51.52;98305.31;4765761;29;20055;-64
2023/04/29 00:56:01;;;;;;;19.20;10.93;;;;;;;22.54;51.39;98304.22;4778776;29;20058;-66
2023/04/29 00:58:34;;;;;;;22.35;12.10;;;;;;;22.57;51.35;98309.09;4772896;29;20697;-66
2023/04/29 01:01:03;;;;;;;23.42;10.95;;;;;;;22.58;51.48;98303.38;4770450;29;20127;-66
2023/04/29 01:03:33;;;;;;;26.35;12.20;;;;;;;22.62;51.40;98306.31;4774368;29;20139;-66
2023/04/29 01:06:23;;;;;;;19.63;11.20;;;;;;;22.67;51.88;98293.59;4766596;29;20051;-67
2023/04/29 01:09:21;;;;;;;24.70;11.18;;;;;;;22.72;51.78;98306.31;4763896;29;20138;-65
2023/04/29 01:12:26;;;;;;;27.38;10.90;;;;;;;22.78;51.41;98314.09;4770030;29;20052;-66
2023/04/29 01:15:17;;;;;;;21.95;11.02;;;;;;;22.82;51.31;98314.34;4757425;29;20052;-65
2023/04/29 01:18:03;;;;;;;25.75;12.85;;;;;;;22.85;51.59;98313.75;4758792;29;20067;-60
2023/04/29 01:20:34;;;;;;;18.17;11.15;;;;;;;22.89;51.47;98319.41;4753577;29;20048;-67
2023/04/29 01:23:04;;;;;;;26.40;11.25;;;;;;;22.92;51.42;98330.47;4757175;29;20132;-63
2023/04/29 01:25:34;;;;;;;27.58;11.73;;;;;;;22.96;51.56;98328.81;4763598;29;20083;-65
2023/04/29 01:28:31;;;;;;;25.27;11.43;;;;;;;23.03;51.82;98332.00;4765483;29;20139;-63
2023/04/29 01:31:08;;;;;;;24.35;11.00;;;;;;;23.11;51.88;98328.69;4767621;29;20067;-65
2023/04/29 01:33:59;;;;;;;28.80;11.52;;;;;;;23.19;52.07;98340.81;4768571;29;20239;-65
2023/04/29 01:36:53;;;;;;;21.05;11.57;;;;;;;23.24;52.31;98340.75;4763484;29;20089;-63
2023/04/29 01:39:40;;;;;;;28.33;12.00;;;;;;;23.23;52.14;98342.63;4769050;29;20066;-66
2023/04/29 01:42:50;;;;;;;22.85;11.25;;;;;;;23.23;51.81;98353.44;4765010;29;20474;-63
2023/04/29 01:45:22;;;;;;;27.65;11.18;;;;;;;23.25;51.85;98353.97;4785443;29;20051;-63
2023/04/29 01:47:55;;;;;;;19.92;11.38;;;;;;;23.24;50.99;98346.94;4769083;29;20055;-66
2023/04/29 01:50:25;;;;;;;21.95;11.50;;;;;;;23.25;51.13;98351.28;4762663;29;20071;-67
2023/04/29 01:53:01;;;;;;;21.13;10.95;;;;;;;23.25;51.15;98353.16;4753334;30;20051;-63
2023/04/29 01:55:31;;;;;;;18.35;11.05;;;;;;;23.26;51.31;98354.78;4776182;29;20535;-62
2023/04/29 01:58:20;;;;;;;22.38;11.30;;;;;;;23.28;51.33;98356.09;4765260;29;20499;-63
2023/04/29 02:00:55;;;;;;;19.52;10.82;;;;;;;23.30;51.49;98361.22;4765549;29;20059;-63
2023/04/29 02:03:26;;;;;;;19.67;10.75;;;;;;;23.37;51.88;98366.34;4768513;29;20086;-63
2023/04/29 02:05:58;;;;;;;22.23;11.18;;;;;;;23.46;53.19;98362.75;4780009;29;20051;-64
2023/04/29 02:08:27;;;;;;;19.67;10.48;;;;;;;23.57;56.16;98363.47;4769442;29;20063;-64
2023/04/29 02:10:59;;;;;;;22.83;10.88;;;;;;;23.65;56.97;98368.25;4779680;29;20159;-67
2023/04/29 02:13:34;;;;;;;21.98;11.20;;;;;;;23.71;55.67;98370.63;4774714;29;20063;-65
2023/04/29 02:16:09;;;;;;;21.30;11.35;;;;;;;23.82;56.15;98365.91;4763597;29;20062;-63
2023/04/29 02:18:43;;;;;;;19.95;10.85;;;;;;;23.93;56.30;98367.44;4783877;29;20048;-65
2023/04/29 02:21:12;;;;;;;22.98;10.98;;;;;;;24.11;56.09;98372.09;4765828;29;20051;-65
2023/04/29 02:23:42;;;;;;;24.48;10.57;;;;;;;24.21;54.70;98375.81;4767607;29;20063;-65
2023/04/29 02:26:12;;;;;;;26.50;11.77;;;;;;;24.30;53.91;98380.28;4764633;29;20055;-64
2023/04/29 02:28:43;;;;;;;24.67;11.10;;;;;;;24.47;54.47;98383.31;4762374;30;20052;-64
2023/04/29 02:31:12;;;;;;;21.52;11.80;;;;;;;24.74;53.74;98382.69;4766305;29;20070;-61
2023/04/29 02:33:44;;;;;;;30.98;12.60;;;;;;;24.98;53.64;98388.88;4768966;29;20124;-64
2023/04/29 02:36:13;;;;;;;26.30;12.25;;;;;;;25.24;53.42;98380.34;4780954;29;20042;-63
2023/04/29 02:38:43;;;;;;;32.92;13.95;;;;;;;25.53;51.16;98380.97;4768778;29;20055;-66
2023/04/29 02:41:18;;;;;;;29.42;15.23;;;;;;;25.85;48.26;98380.94;4766892;29;20801;-63
2023/04/29 02:43:48;;;;;;;34.78;17.83;;;;;;;25.94;46.65;98384.56;4754269;29;20151;-64
2023/04/29 02:46:17;;;;;;;34.83;16.77;;;;;;;26.15;48.00;98386.91;4766988;29;20105;-69
2023/04/29 02:48:47;;;;;;;35.33;17.63;;;;;;;26.26;47.98;98385.63;4745432;30;20405;-63
2023/04/29 02:51:16;;;;;;;32.28;16.83;;;;;;;26.22;46.99;98392.78;4748477;29;20060;-64
2023/04/29 02:53:46;;;;;;;33.80;16.77;;;;;;;26.20;46.37;98390.34;4753680;29;20102;-65
2023/04/29 02:56:15;;;;;;;29.67;15.98;;;;;;;26.15;46.11;98387.72;4754381;29;20059;-63
2023/04/29 02:58:45;;;;;;;30.25;16.63;;;;;;;26.04;46.53;98390.91;4755161;29;20425;-61
2023/04/29 03:01:14;;;;;;;38.75;16.40;;;;;;;26.01;46.87;98391.53;4768085;29;20059;-64
2023/04/29 03:03:44;;;;;;;35.10;15.98;;;;;;;25.83;48.32;98385.88;4766492;29;20054;-64
2023/04/29 03:06:14;;;;;;;31.73;14.75;;;;;;;25.89;47.49;98384.66;4776201;29;20054;-64
2023/04/29 03:08:44;;;;;;;23.73;12.88;;;;;;;25.97;47.88;98395.94;4767995;29;20063;-60
2023/04/29 03:11:13;;;;;;;30.88;13.70;;;;;;;25.84;48.10;98397.53;4761182;29;20063;-64
2023/04/29 03:13:42;;;;;;;24.75;12.38;;;;;;;25.72;46.54;98395.28;4766015;29;20711;-64
2023/04/29 03:16:15;;;;;;;27.38;11.77;;;;;;;25.58;46.47;98404.53;4764766;29;20051;-63
2023/04/29 03:18:45;;;;;;;20.73;11.85;;;;;;;25.48;45.76;98400.03;4761568;29;20062;-66
2023/04/29 03:21:15;;;;;;;31.17;13.73;;;;;;;25.55;46.57;98400.47;4767228;29;20206;-63
2023/04/29 03:23:44;;;;;;;22.98;11.77;;;;;;;25.50;46.93;98406.75;4771026;29;20113;-61
2023/04/29 03:26:21;;;;;;;25.50;11.82;;;;;;;25.64;48.78;98406.03;4763771;29;20059;-64
2023/04/29 03:28:51;;;;;;;28.75;12.20;;;;;;;25.73;49.50;98399.63;4747681;30;20696;-68
2023/04/29 03:31:21;;;;;;;22.33;12.40;;;;;;;25.69;48.54;98404.03;4772098;29;20055;-67
2023/04/29 03:33:52;;;;;;;24.60;11.20;;;;;;;25.72;48.17;98406.16;4771891;29;20480;-65
2023/04/29 03:36:22;;;;;;;20.80;11.13;;;;;;;25.65;48.08;98404.94;4761754;29;20422;-66
2023/04/29 03:39:05;;;;;;;24.30;11.13;;;;;;;25.56;47.07;98402.09;4764367;29;20575;-63
2023/04/29 03:41:35;;;;;;;19.45;10.75;;;;;;;25.74;46.56;98411.28;4763928;30;20048;-65
2023/04/29 03:44:05;;;;;;;25.35;11.23;;;;;;;25.86;45.98;98411.59;4773712;29;20063;-64
2023/04/29 03:46:34;;;;;;;26.90;12.52;;;;;;;25.97;46.43;98413.03;4755243;29;20059;-62
2023/04/29 03:49:04;;;;;;;21.75;11.65;;;;;;;25.90;47.85;98423.47;4761670;29;20058;-64
2023/04/29 03:51:34;;;;;;;29.02;11.95;;;;;;;26.07;48.79;98426.41;4765284;29;20377;-64
2023/04/29 03:54:11;;;;;;;27.00;11.63;;;;;;;26.13;48.83;98425.22;4766843;29;20067;-62
2023/04/29 03:56:42;;;;;;;29.33;11.80;;;;;;;26.28;47.70;98433.13;4779193;29;20082;-65
2023/04/29 03:59:12;;;;;;;22.33;10.73;;;;;;;26.38;45.51;98434.81;4778430;29;21005;-64
2023/04/29 04:01:42;;;;;;;25.13;10.13;;;;;;;26.49;45.28;98425.38;4785160;29;20062;-64
2023/04/29 04:04:12;;;;;;;24.00;12.65;;;;;;;26.42;46.97;98438.56;4784763;29;20094;-64
2023/04/29 04:06:50;;;;;;;;;;;;;;;26.38;47.12;98430.19;4778628;29;20058;-63
2023/04/29 04:09:22;;;;;;;22.73;10.50;;;;;;;26.43;46.51;98428.47;4780388;29;19932;-64
2023/04/29 04:11:52;;;;;;;24.88;9.70;;;;;;;26.57;45.21;98432.81;4778449;29;20133;-66
2023/04/29 04:14:21;;;;;;;26.40;9.98;;;;;;;26.83;45.68;98430.34;4777387;29;20542;-65
2023/04/29 04:16:51;;;;;;;20.75;9.73;;;;;;;26.99;47.44;98428.94;4780815;29;20178;-65
2023/04/29 04:19:20;;;;;;;21.30;9.68;;;;;;;27.11;46.94;98428.41;4778225;29;20047;-62
2023/04/29 04:21:50;;;;;;;17.60;9.25;;;;;;;26.89;47.35;98441.94;4781462;29;20181;-64
2023/04/29 04:24:19;;;;;;;17.02;9.13;;;;;;;26.93;46.44;98429.34;4776709;29;20475;-64
2023/04/29 04:26:48;;;;;;;18.08;9.23;;;;;;;27.15;46.75;98435.66;4778877;29;20181;-63
2023/04/29 04:29:22;;;;;;;18.42;9.13;;;;;;;27.21;46.72;98441.78;4776233;29;20071;-64
2023/04/29 04:31:59;;;;;;;22.38;9.32;;;;;;;27.48;46.15;98439.00;4780929;29;20058;-61
2023/04/29 04:34:29;;;;;;;19.30;9.63;;;;;;;27.43;46.00;98432.84;4783293;29;20048;-63
2023/04/29 04:37:01;;;;;;;26.25;9.65;;;;;;;27.68;45.40;98430.31;4777549;29;20048;-62
2023/04/29 04:39:32;;;;;;;25.73;10.18;;;;;;;27.92;44.99;98434.63;4779792;29;20177;-67
2023/04/29 04:42:02;;;;;;;24.10;9.40;;;;;;;28.04;44.65;98437.56;4778693;29;20055;-65
2023/04/29 04:44:33;;;;;;;24.17;10.75;;;;;;;28.17;44.21;98436.69;4784132;29;20388;-62
2023/04/29 04:47:07;;;;;;;16.88;8.73;;;;;;;28.09;45.34;98434.72;4774579;29;20082;-64
2023/04/29 04:49:54;;;;;;;16.35;8.40;;;;;;;28.32;44.11;98435.50;4763663;29;20058;-62
2023/04/29 04:52:23;;;;;;;20.95;8.63;;;;;;;28.55;43.77;98431.53;4778799;29;20055;-61
2023/04/29 04:55:02;;;;;;;16.25;8.35;;;;;;;28.71;44.38;98435.47;4783498;29;20050;-66
2023/04/29 04:57:35;;;;;;;14.85;7.68;;;;;;;28.73;42.61;98432.41;4781030;29;20059;-63
2023/04/29 05:00:06;;;;;;;27.02;9.13;;;;;;;28.82;43.65;98434.03;4780004;29;20138;-67
2023/04/29 05:02:36;;;;;;;17.45;8.60;;;;;;;28.58;43.42;98428.19;4782801;29;20432;-67
2023/04/29 05:05:06;;;;;;;17.13;8.23;;;;;;;28.63;43.45;98429.97;4783010;29;20055;-64
2023/04/29 05:07:37;;;;;;;19.80;7.75;;;;;;;28.75;44.12;98424.75;4781558;29;20066;-62
2023/04/29 05:10:07;;;;;;;16.58;8.13;;;;;;;28.92;43.26;98435.66;4779314;29;20047;-65
2023/04/29 05:12:45;;;;;;;23.50;8.52;;;;;;;28.74;45.88;98423.94;4782761;29;20082;-66
2023/04/29 05:15:15;;;;;;;16.23;7.13;;;;;;;28.76;42.39;98426.34;4768049;29;20069;-67
2023/04/29 05:17:47;;;;;;;13.18;6.40;;;;;;;28.92;40.80;98424.75;4778601;29;20406;-68
2023/04/29 05:20:16;;;;;;;19.00;6.05;;;;;;;28.81;41.88;98418.81;4778132;29;20051;-63
2023/04/29 05:22:46;;;;;;;20.05;6.30;;;;;;;28.55;40.48;98416.00;4780104;29;20044;-63
2023/04/29 05:25:16;;;;;;;19.38;6.00;;;;;;;28.47;40.70;98424.16;4781096;29;20055;-68
2023/04/29 05:27:45;;;;;;;15.38;5.80;;;;;;;28.46;42.15;98425.25;4779212;29;20051;-66
2023/04/29 05:30:18;;;;;;;17.80;5.50;;;;;;;28.68;42.33;98429.84;4780102;29;20098;-69
2023/04/29 05:32:48;;;;;;;15.95;5.18;;;;;;;28.67;42.97;98428.22;4781338;29;20833;-69
2023/04/29 05:35:21;;;;;;;14.40;5.80;;;;;;;28.87;42.36;98414.00;4771863;29;20104;-64
2023/04/29 05:37:50;;;;;;;11.77;5.18;;;;;;;29.12;41.05;98418.66;4766427;29;20055;-67
2023/04/29 05:40:32;;;;;;;11.70;5.50;;;;;;;29.19;42.29;98421.75;4763755;29;20470;-68
2023/04/29 05:43:28;;;;;;;10.18;5.38;;;;;;;29.33;42.41;98414.22;4787377;29;20579;-67
2023/04/29 05:45:58;;;;;;;15.30;5.80;;;;;;;29.31;43.72;98419.19;4786203;29;20052;-69
2023/04/29 05:48:28;;;;;;;17.77;5.70;;;;;;;29.30;42.69;98414.84;4783652;29;20413;-67
2023/04/29 05:50:58;;;;;;;15.80;6.88;;;;;;;28.96;42.35;98414.81;4784061;29;20139;-69
2023/04/29 05:53:28;;;;;;;23.80;18.05;;;;;;;29.25;41.85;98411.47;4786907;29;20136;-66
2023/04/29 05:55:58;;;;;;;39.50;24.70;;;;;;;29.03;42.65;98404.25;4786015;29;20047;-67
2023/04/29 05:58:27;;;;;;;37.70;21.95;;;;;;;29.26;41.56;98402.94;4783560;29;20385;-65
2023/04/29 06:00:57;;;;;;;30.80;18.02;;;;;;;29.25;39.28;98401.38;4782464;29;20527;-66
2023/04/29 06:03:28;;;;;;;42.78;17.33;;;;;;;29.11;40.77;98394.47;4784846;29;20054;-66
2023/04/29 06:06:18;;;;;;;22.45;12.25;;;;;;;29.17;41.33;98391.25;4761832;29;20051;-65
2023/04/29 06:09:01;;;;;;;18.50;10.20;;;;;;;29.42;40.55;98390.47;4771985;29;20047;-64
2023/04/29 06:11:40;;;;;;;14.30;7.00;;;;;;;29.97;38.55;98388.91;4769843;29;20075;-63
2023/04/29 06:14:10;;;;;;;11.50;5.85;;;;;;;30.82;35.56;98381.41;4786071;29;20050;-65
2023/04/29 06:16:40;;;;;;;15.48;6.22;;;;;;;30.61;38.02;98389.59;4785388;29;20055;-65
2023/04/29 06:19:10;;;;;;;17.10;5.30;;;;;;;30.55;37.22;98388.19;4783755;29;20047;-61
2023/04/29 06:21:42;;;;;;;11.07;4.80;;;;;;;30.38;37.44;98390.97;4763199;29;20058;-65
2023/04/29 06:24:12;;;;;;;12.07;5.18;;;;;;;30.30;36.46;98387.16;4789049;29;20345;-62
2023/04/29 06:26:41;;;;;;;14.23;4.97;;;;;;;30.06;36.66;98386.94;4785974;29;20055;-62
2023/04/29 06:29:11;;;;;;;10.25;4.50;;;;;;;30.11;37.05;98386.75;4779756;29;20683;-61
2023/04/29 06:31:40;;;;;;;10.05;4.47;;;;;;;30.26;36.91;98380.75;4786264;29;20048;-63
2023/04/29 06:34:12;;;;;;;12.75;4.55;;;;;;;30.42;37.37;98375.53;4779866;29;20055;-62
2023/04/29 06:37:03;;;;;;;11.38;4.82;;;;;;;30.62;37.67;98383.00;4780705;29;20438;-66
2023/04/29 06:39:54;;;;;;;16.35;5.35;;;;;;;30.70;38.94;98368.47;4779215;29;20058;-62
2023/04/29 06:42:42;;;;;;;16.17;5.30;;;;;;;30.84;36.82;98373.69;4767628;29;20055;-63
2023/04/29 06:45:49;;;;;;;12.32;5.00;;;;;;;31.34;33.69;98370.88;4784335;29;20059;-63
2023/04/29 06:48:29;;;;;;;13.50;4.50;;;;;;;31.46;32.16;98369.00;4778138;29;20060;-62
2023/04/29 06:50:58;;;;;;;16.58;5.32;;;;;;;31.72;30.69;98359.72;4781811;29;20780;-63
2023/04/29 06:54:27;;;;;;;18.00;5.43;;;;;;;31.71;30.71;98361.66;4780295;29;20064;-63
2023/04/29 06:57:55;;;;;;;14.20;6.05;;;;;;;32.51;28.31;98365.50;4777648;29;20078;-63
2023/04/29 07:01:22;;;;;;;11.50;4.65;;;;;;;32.46;33.73;98367.69;4782147;29;20491;-62
2023/04/29 07:04:51;;;;;;;13.93;4.57;;;;;;;32.41;33.00;98365.16;4778762;29;20059;-64
2023/04/29 07:08:19;;;;;;;19.05;5.13;;;;;;;32.67;30.13;98362.88;4779760;29;20222;-62
2023/04/29 07:11:46;;;;;;;10.70;4.25;;;;;;;32.92;28.00;98356.22;4749538;29;20067;-60
2023/04/29 07:15:14;;;;;;;15.25;5.10;;;;;;;33.24;30.09;98350.84;4754734;29;20047;-64
2023/04/29 07:18:41;;;;;;;12.35;5.20;;;;;;;33.28;30.17;98343.53;4757751;29;20067;-64
2023/04/29 07:22:08;;;;;;;18.20;4.97;;;;;;;33.08;25.91;98341.72;4755917;29;20067;-62
2023/04/29 07:25:36;;;;;;;15.57;5.70;;;;;;;33.51;26.07;98350.03;4758384;29;20077;-63
2023/04/29 07:29:03;;;;;;;21.17;5.65;;;;;;;33.61;25.15;98341.28;4757862;29;20048;-62
2023/04/29 07:32:31;;;;;;;15.18;5.97;;;;;;;33.84;27.17;98347.81;4754981;29;20143;-62
2023/04/29 07:35:59;;;;;;;20.10;5.20;;;;;;;33.82;28.72;98336.34;4757519;29;20114;-61
2023/04/29 07:39:28;;;;;;;14.65;5.00;;;;;;;33.66;25.25;98332.81;4753048;29;20090;-65
2023/04/29 07:42:56;;;;;;;13.93;5.28;;;;;;;33.68;25.57;98333.22;4760191;29;20051;-63
2023/04/29 08:05:44;;;;;;;17.83;5.93;;;;;;;33.50;25.69;98300.97;4403579;29;9999814;-69
2023/04/29 08:08:16;;;;;;;19.70;5.22;;;;;;;33.58;24.73;98303.53;4792652;29;20058;-63
2023/04/29 08:10:46;;;;;;;16.45;5.15;;;;;;;33.48;24.53;98297.75;4780945;29;20204;-64
2023/04/29 08:13:16;;;;;;;16.15;5.63;;;;;;;33.54;25.61;98299.09;4757175;29;20603;-65
2023/04/29 08:15:45;;;;;;;17.27;5.43;;;;;;;33.43;30.56;98285.06;4766638;29;20048;-66
2023/04/29 08:18:15;;;;;;;17.23;4.97;;;;;;;33.34;29.30;98281.69;4764404;29;20632;-65
2023/04/29 08:20:46;;;;;;;19.83;5.28;;;;;;;33.29;26.35;98282.75;4766280;29;20122;-63
2023/04/29 08:23:15;;;;;;;14.38;5.38;;;;;;;33.22;30.00;98273.53;4767630;29;20044;-62
2023/04/29 08:25:45;;;;;;;18.65;5.63;;;;;;;33.02;28.29;98272.56;4767298;29;20063;-63
2023/04/29 08:28:14;;;;;;;11.18;5.05;;;;;;;33.01;31.92;98267.44;4770072;29;20062;-63
2023/04/29 08:30:43;;;;;;;18.65;5.40;;;;;;;32.97;28.94;98265.38;4766516;29;20059;-67
2023/04/29 08:33:13;;;;;;;10.32;4.82;;;;;;;33.05;28.83;98255.41;4764468;29;20055;-63
2023/04/29 08:35:42;;;;;;;12.90;5.45;;;;;;;33.11;27.96;98259.47;4763468;29;20063;-66
2023/04/29 08:38:12;;;;;;;18.10;5.70;;;;;;;32.91;29.83;98255.03;4773189;29;20051;-66
2023/04/29 08:40:45;;;;;;;15.23;5.40;;;;;;;32.68;28.11;98248.47;4772387;29;20704;-65
2023/04/29 08:43:16;;;;;;;13.38;5.75;;;;;;;32.56;30.01;98252.03;4767582;29;20055;-66
2023/04/29 08:45:48;;;;;;;21.52;5.72;;;;;;;32.53;29.27;98239.81;4437854;29;9999919;-62
2023/04/29 08:48:17;;;;;;;14.10;5.43;;;;;;;32.36;29.06;98234.59;4775478;29;20122;-63
2023/04/29 08:56:56;;;;;;;17.35;5.90;;;;;;;32.41;26.98;98217.13;5096105;24;20055;-60
2023/04/29 08:59:29;;;;;;;13.48;5.70;;;;;;;32.76;27.03;98220.91;4760512;29;20556;-68
2023/04/29 09:01:59;;;;;;;25.00;6.30;;;;;;;32.67;27.78;98217.50;4763822;29;20396;-65
2023/04/29 09:05:07;;;;;;;20.42;5.80;;;;;;;32.81;27.82;98220.66;4763889;29;20149;-66
2023/04/29 09:07:41;;;;;;;22.42;5.70;;;;;;;32.81;28.66;98208.88;4757214;29;20379;-66
2023/04/29 09:10:11;;;;;;;16.38;5.72;;;;;;;32.80;30.01;98204.53;4769465;29;20142;-64
2023/04/29 09:12:47;;;;;;;15.68;6.70;;;;;;;32.81;27.84;98195.97;4763850;29;20049;-64
2023/04/29 09:15:17;;;;;;;20.45;6.88;;;;;;;32.76;30.85;98190.72;4425976;29;9999750;-69
2023/04/29 09:17:48;;;;;;;18.08;5.85;;;;;;;32.05;32.45;98188.63;4748307;29;20051;-67
2023/04/29 09:20:21;;;;;;;14.45;6.03;;;;;;;31.82;33.62;98190.25;4749374;29;20063;-67
2023/04/29 09:22:52;;;;;;;23.55;6.97;;;;;;;31.56;33.51;98182.38;4753617;29;20520;-66
2023/04/29 09:25:22;;;;;;;17.23;6.28;;;;;;;31.44;34.96;98179.63;4762796;29;20059;-65
2023/04/29 09:27:52;;;;;;;12.95;6.35;;;;;;;31.21;35.74;98176.53;4740874;30;20062;-66
2023/04/29 09:30:21;;;;;;;20.70;6.18;;;;;;;31.06;36.14;98171.72;4758902;29;20127;-65
2023/04/29 09:33:05;;;;;;;18.08;7.10;;;;;;;30.91;37.02;98172.34;4774815;29;20707;-66
2023/04/29 09:35:35;;;;;;;17.85;7.00;;;;;;;30.86;34.21;98167.09;4774218;29;20053;-66
2023/04/29 09:38:15;;;;;;;23.13;6.95;;;;;;;30.92;32.25;98164.94;4757945;29;20496;-63
2023/04/29 09:40:46;;;;;;;23.90;8.10;;;;;;;31.15;31.90;98157.94;4751815;29;20083;-64
2023/04/29 09:43:26;;;;;;;23.23;8.55;;;;;;;31.47;29.44;98156.22;4762678;29;20059;-66
2023/04/29 09:45:57;;;;;;;63.88;9.88;;;;;;;31.60;33.06;98166.88;4759422;29;20047;-61
2023/04/29 09:48:33;;;;;;;144.73;16.50;;;;;;;31.61;35.58;98193.13;4760680;29;20063;-62
2023/04/29 09:51:04;;;;;;;127.97;13.80;;;;;;;31.24;39.59;98179.72;4772840;29;20059;-64
2023/04/29 09:53:38;;;;;;;105.95;15.52;;;;;;;31.03;39.43;98190.75;4759251;29;20056;-60
2023/04/29 09:56:09;;;;;;;92.15;13.38;;;;;;;30.92;40.60;98178.63;4767674;29;20052;-63
2023/04/29 09:58:40;;;;;;;91.50;12.35;;;;;;;30.72;41.88;98174.78;4771236;29;20055;-63
2023/04/29 10:01:41;;;;;;;111.95;12.68;;;;;;;30.53;40.06;98178.03;4766723;29;20082;-68
2023/04/29 10:05:09;;;;;;;83.57;11.55;;;;;;;30.40;40.31;98167.34;4757310;29;20071;-68
2023/04/29 10:08:40;;;;;;;68.78;10.93;;;;;;;30.22;40.66;98172.97;4758228;29;20070;-65
2023/04/29 10:12:08;;;;;;;60.72;10.98;;;;;;;30.05;38.44;98161.38;4759869;29;20138;-63
2023/04/29 10:15:49;;;;;;;56.08;10.18;;;;;;;29.88;36.98;98174.00;4757104;29;20078;-64
2023/04/29 10:19:57;;;;;;;58.08;8.73;;;;;;;29.81;36.66;98167.44;4752587;29;20040;-60
2023/04/29 10:23:26;;;;;;;52.90;9.05;;;;;;;29.74;38.11;98178.09;4763225;29;20068;-67
2023/04/29 10:25:58;;;;;;;48.22;8.13;;;;;;;29.75;38.02;98175.03;4763163;29;20056;-67
2023/04/29 10:28:32;;;;;;;47.50;10.80;;;;;;;29.82;38.41;98174.50;4758108;29;20131;-68
2023/04/29 10:31:04;;;;;;;46.05;8.23;;;;;;;29.74;39.81;98183.56;4761742;29;20047;-67
2023/04/29 10:33:36;;;;;;;59.45;9.48;;;;;;;29.66;38.67;98187.91;4769938;29;20054;-66
2023/04/29 10:36:08;;;;;;;41.55;8.60;;;;;;;29.71;38.88;98182.28;4771759;29;20063;-69
2023/04/29 10:38:49;;;;;;;31.40;8.15;;;;;;;29.66;38.12;98178.94;4768965;29;20059;-72
2023/04/29 10:41:27;;;;;;;52.13;8.77;;;;;;;29.61;39.28;98181.88;4761036;29;20129;-71
2023/04/29 10:43:59;;;;;;;46.42;9.35;;;;;;;29.50;42.51;98175.16;4762057;29;20122;-68
2023/04/29 10:46:31;;;;;;;48.55;9.05;;;;;;;29.48;40.71;98180.94;4772974;29;20055;-70
2023/04/29 10:49:03;;;;;;;58.15;9.48;;;;;;;29.46;38.46;98185.94;4766577;29;20055;-67
2023/04/29 10:51:40;;;;;;;33.80;8.05;;;;;;;29.36;40.78;98195.28;4765038;29;20094;-72
2023/04/29 10:54:17;;;;;;;38.20;7.60;;;;;;;29.12;39.51;98195.00;4767658;29;20056;-69
2023/04/29 10:56:49;;;;;;;43.47;7.57;;;;;;;29.07;41.66;98197.13;4772083;29;20386;-69
2023/04/29 10:59:28;;;;;;;43.17;8.27;;;;;;;29.05;40.20;98191.19;4774058;29;20090;-69
2023/04/29 11:01:58;;;;;;;46.65;8.55;;;;;;;29.01;40.49;98196.50;4767871;29;20065;-70
2023/04/29 11:04:31;;;;;;;33.92;6.68;;;;;;;29.00;39.18;98181.25;4770113;29;20057;-69
2023/04/29 11:07:01;;;;;;;30.02;6.25;;;;;;;28.96;41.48;98183.03;4764339;29;20063;-67
2023/04/29 11:09:37;;;;;;;26.17;6.90;;;;;;;28.93;39.18;98178.25;4770776;29;20136;-64
2023/04/29 11:12:10;;;;;;;45.38;9.55;;;;;;;29.01;39.33;98177.41;4769291;29;20052;-69
2023/04/29 11:14:50;;;;;;;32.78;6.75;;;;;;;29.03;39.57;98167.78;4773917;29;20439;-64
2023/04/29 11:17:22;;;;;;;49.33;7.00;;;;;;;29.08;39.21;98166.03;4773544;29;20055;-64
2023/04/29 11:19:56;;;;;;;36.40;7.15;;;;;;;29.11;41.75;98171.63;4772459;29;20058;-63
2023/04/29 11:22:27;;;;;;;26.50;6.80;;;;;;;29.11;42.04;98166.16;4763179;29;20154;-68
2023/04/29 11:25:01;;;;;;;41.75;7.40;;;;;;;28.97;41.50;98166.38;4758187;29;20052;-64
2023/04/29 11:27:48;;;;;;;42.53;7.03;;;;;;;28.91;40.71;98159.47;4761984;29;20051;-71
2023/04/29 11:30:20;;;;;;;39.53;7.40;;;;;;;28.98;40.11;98156.25;4776027;29;20058;-63
2023/04/29 11:32:50;;;;;;;41.63;6.85;;;;;;;28.98;40.70;98161.72;4779421;29;20084;-67
2023/04/29 11:35:20;;;;;;;37.83;7.85;;;;;;;28.98;40.44;98165.25;4775218;29;20083;-64
2023/04/29 11:37:50;;;;;;;23.65;6.30;;;;;;;28.98;41.91;98169.91;4772562;29;20069;-66
2023/04/29 11:40:20;;;;;;;29.63;6.90;;;;;;;28.96;41.21;98166.69;4770814;29;20091;-66
2023/04/29 11:42:50;;;;;;;35.33;6.55;;;;;;;28.92;41.17;98171.19;4767464;29;20059;-67
2023/04/29 11:45:19;;;;;;;41.90;7.50;;;;;;;28.85;41.37;98160.78;4774242;29;20487;-66
2023/04/29 11:47:49;;;;;;;35.97;7.90;;;;;;;28.83;42.34;98151.31;4772383;29;20051;-68
2023/04/29 11:50:23;;;;;;;39.08;6.70;;;;;;;28.75;41.29;98152.94;4776455;29;20055;-66
2023/04/29 11:52:52;;;;;;;32.92;7.10;;;;;;;28.79;42.36;98147.66;4777857;29;20154;-66
2023/04/29 11:55:22;;;;;;;32.85;7.40;;;;;;;28.78;42.51;98146.84;4768577;29;20071;-65
2023/04/29 11:57:52;;;;;;;29.02;6.57;;;;;;;28.74;42.51;98139.63;4776559;29;20055;-65
2023/04/29 12:00:21;;;;;;;29.77;6.90;;;;;;;28.69;42.41;98137.06;4778924;29;20067;-65
2023/04/29 12:02:50;;;;;;;26.55;6.10;;;;;;;28.72;42.58;98136.44;4777523;29;20059;-64
2023/04/29 12:05:21;;;;;;;28.42;6.47;;;;;;;28.71;41.96;98130.19;4771315;29;20147;-65
2023/04/29 12:07:51;;;;;;;27.73;5.65;;;;;;;28.72;41.54;98131.00;4763201;29;20060;-63
2023/04/29 12:10:20;;;;;;;27.35;6.32;;;;;;;28.72;40.97;98126.34;4761452;29;20069;-64
2023/04/29 12:12:50;;;;;;;26.17;6.30;;;;;;;28.69;40.20;98120.69;4761332;29;20154;-62
2023/04/29 12:15:19;;;;;;;29.75;6.35;;;;;;;28.68;40.74;98124.56;4776359;29;20094;-62
2023/04/29 12:17:50;;;;;;;33.95;7.32;;;;;;;28.66;41.48;98116.72;4764363;30;20146;-64
2023/04/29 12:20:20;;;;;;;25.10;6.70;;;;;;;28.60;44.77;98107.09;4754723;29;20048;-64
2023/04/29 12:22:50;;;;;;;26.25;6.53;;;;;;;28.46;43.37;98101.81;4744228;29;20798;-64
2023/04/29 12:25:26;;;;;;;16.50;6.80;;;;;;;28.38;45.33;98094.47;4774525;29;20063;-66
2023/04/29 12:27:59;;;;;;;27.08;6.57;;;;;;;28.33;47.38;98096.56;4767994;29;20579;-65
2023/04/29 12:30:30;;;;;;;26.95;6.20;;;;;;;28.26;47.67;98094.34;4749885;29;20060;-64
2023/04/29 12:32:59;;;;;;;28.13;6.78;;;;;;;28.09;45.37;98089.69;4745033;29;20559;-64
2023/04/29 12:35:29;;;;;;;21.15;6.07;;;;;;;28.07;46.65;98085.66;4768446;30;20058;-64